Schneifelwetter: Wetterstation Hallschlag, 537 m . NN
Wetterdaten: Donnerstag, 16.06.2011
Datum Zeit Temp. A. Feuchte A. Luftdruck Regen Wind Richtung Richtung Sonnenschein Helligkeit T Regen Taupunkt Windchill
16.06.2011 00:01 12,0 C 79 % 1015 hPa 0,0 l/m 0,0 km/h (0 Bft) W 265 0 min 0 lux 0,00 min 8,5 C 12,0 C
16.06.2011 00:16 11,5 C 80 % 1015 hPa 0,0 l/m 0,0 km/h (0 Bft) W 270 0 min 0 lux 0,00 min 8,2 C 11,5 C
16.06.2011 00:31 11,0 C 81 % 1015 hPa 0,0 l/m 0,0 km/h (0 Bft) W 265 0 min 0 lux 0,00 min 7,9 C 11,0 C
16.06.2011 00:46 10,6 C 83 % 1015 hPa 0,0 l/m 0,0 km/h (0 Bft) W 265 0 min 0 lux 0,00 min 7,8 C 10,6 C
16.06.2011 01:01 10,4 C 83 % 1015 hPa 0,0 l/m 0,0 km/h (0 Bft) W 265 0 min 0 lux 0,00 min 7,6 C 10,4 C
16.06.2011 01:16 10,0 C 84 % 1015 hPa 0,0 l/m 0,0 km/h (0 Bft) W 265 0 min 0 lux 0,00 min 7,4 C 10,0 C
16.06.2011 01:31 9,8 C 84 % 1015 hPa 0,0 l/m 0,0 km/h (0 Bft) W 265 0 min 0 lux 0,00 min 7,2 C 9,8 C
16.06.2011 01:46 9,5 C 85 % 1015 hPa 0,0 l/m 0,0 km/h (0 Bft) W 265 0 min 0 lux 0,00 min 7,1 C 9,5 C
16.06.2011 02:01 9,5 C 87 % 1015 hPa 0,0 l/m 0,0 km/h (0 Bft) W 265 0 min 0 lux 0,00 min 7,4 C 9,5 C
16.06.2011 02:16 9,8 C 87 % 1014 hPa 0,0 l/m 0,0 km/h (0 Bft) W 265 0 min 0 lux 0,00 min 7,7 C 9,8 C
16.06.2011 02:31 9,9 C 87 % 1014 hPa 0,0 l/m 0,0 km/h (0 Bft) W 265 0 min 0 lux 0,00 min 7,8 C 9,9 C
16.06.2011 02:46 9,8 C 87 % 1014 hPa 0,0 l/m 0,0 km/h (0 Bft) W 265 0 min 0 lux 0,00 min 7,7 C 9,8 C
16.06.2011 03:01 10,0 C 87 % 1014 hPa 0,0 l/m 0,0 km/h (0 Bft) W 265 0 min 0 lux 0,00 min 7,9 C 10,0 C
16.06.2011 03:16 10,0 C 87 % 1014 hPa 0,0 l/m 0,0 km/h (0 Bft) W 265 0 min 0 lux 0,00 min 7,9 C 10,0 C
16.06.2011 03:32 10,0 C 87 % 1014 hPa 0,0 l/m 0,0 km/h (0 Bft) W 265 0 min 0 lux 0,00 min 7,9 C 10,0 C
16.06.2011 03:47 10,2 C 88 % 1014 hPa 0,0 l/m 0,0 km/h (0 Bft) W 265 0 min 0 lux 0,00 min 8,3 C 10,2 C
16.06.2011 04:02 10,4 C 87 % 1014 hPa 0,0 l/m 0,0 km/h (0 Bft) W 265 0 min 0 lux 0,00 min 8,3 C 10,4 C
16.06.2011 04:17 10,4 C 87 % 1014 hPa 0,0 l/m 0,0 km/h (0 Bft) W 265 0 min 0 lux 0,00 min 8,3 C 10,4 C
16.06.2011 04:32 9,9 C 87 % 1014 hPa 0,0 l/m 0,0 km/h (0 Bft) W 265 0 min 0 lux 0,00 min 7,8 C 9,9 C
16.06.2011 04:47 9,8 C 88 % 1014 hPa 0,0 l/m 0,0 km/h (0 Bft) W 265 0 min 0 lux 0,00 min 7,9 C 9,8 C
16.06.2011 05:01 10,1 C 88 % 1014 hPa 0,0 l/m 0,0 km/h (0 Bft) W 265 0 min 0 lux 0,00 min 8,2 C 10,1 C
16.06.2011 05:16 10,2 C 88 % 1014 hPa 0,0 l/m 0,0 km/h (0 Bft) W 265 0 min 119 lux 0,00 min 8,3 C 10,2 C
16.06.2011 05:31 10,4 C 88 % 1013 hPa 0,0 l/m 0,0 km/h (0 Bft) W 265 0 min 404 lux 0,00 min 8,5 C 10,4 C
16.06.2011 05:46 10,6 C 88 % 1013 hPa 0,0 l/m 0,0 km/h (0 Bft) W 265 0 min 849 lux 0,00 min 8,7 C 10,6 C
16.06.2011 06:01 10,8 C 88 % 1013 hPa 0,0 l/m 0,0 km/h (0 Bft) W 265 0 min 2,81 klux 0,00 min 8,9 C 10,8 C
16.06.2011 06:16 11,0 C 88 % 1013 hPa 0,0 l/m 0,0 km/h (0 Bft) W 265 0 min 4,18 klux 0,00 min 9,1 C 11,0 C
16.06.2011 06:31 11,3 C 88 % 1013 hPa 0,0 l/m 0,0 km/h (0 Bft) W 265 0 min 4,77 klux 0,00 min 9,4 C 11,3 C
16.06.2011 06:46 11,5 C 89 % 1013 hPa 0,0 l/m 0,0 km/h (0 Bft) W 265 0 min 5,31 klux 0,00 min 9,8 C 11,5 C
16.06.2011 07:01 11,8 C 88 % 1013 hPa 0,0 l/m 0,0 km/h (0 Bft) W 265 0 min 3,28 klux 0,00 min 9,9 C 11,8 C
16.06.2011 07:16 11,9 C 88 % 1013 hPa 0,0 l/m 0,0 km/h (0 Bft) W 265 0 min 6,32 klux 0,00 min 10,0 C 11,9 C
16.06.2011 07:31 12,9 C 89 % 1013 hPa 0,0 l/m 0,0 km/h (0 Bft) W 265 0 min 14,5 klux 0,00 min 11,1 C 12,9 C
16.06.2011 07:46 13,5 C 89 % 1013 hPa 0,0 l/m 0,0 km/h (0 Bft) W 265 0 min 18,1 klux 0,00 min 11,7 C 13,5 C
16.06.2011 08:01 15,3 C 86 % 1013 hPa 0,0 l/m 0,0 km/h (0 Bft) S-SO 150 0 min 34,3 klux 0,00 min 13,0 C 15,3 C
16.06.2011 08:16 16,8 C 81 % 1012 hPa 0,0 l/m 14,1 km/h (3 Bft) SW45 235 0 min 30,2 klux 0,00 min 13,5 C 13,6 C
16.06.2011 08:31 16,9 C 78 % 1013 hPa 0,0 l/m 22,3 km/h (4 Bft) S-SW67.5 205 0 min 31,8 klux 0,00 min 13,0 C 11,7 C
16.06.2011 08:46 17,8 C 77 % 1012 hPa 0,0 l/m 19,1 km/h (3 Bft) SW67.5 230 0 min 48,4 klux 0,00 min 13,7 C 13,6 C
16.06.2011 09:02 18,5 C 72 % 1012 hPa 0,0 l/m 26,7 km/h (4 Bft) SW45 220 0 min 56,9 klux 0,00 min 13,4 C 13,1 C
16.06.2011 09:16 18,2 C 72 % 1012 hPa 0,0 l/m 30,7 km/h (5 Bft) SW67.5 220 0 min 31,3 klux 0,00 min 13,1 C 12,1 C
16.06.2011 09:31 18,3 C 73 % 1012 hPa 0,0 l/m 25,6 km/h (4 Bft) S-SW45 210 0 min 43,3 klux 0,00 min 13,4 C 13,0 C
16.06.2011 09:46 18,2 C 73 % 1012 hPa 0,0 l/m 29,6 km/h (5 Bft) W-SW67.5 240 0 min 37,7 klux 0,00 min 13,3 C 12,2 C
16.06.2011 10:01 18,0 C 74 % 1012 hPa 0,0 l/m 23,6 km/h (4 Bft) W-SW45 240 0 min 29,4 klux 0,00 min 13,3 C 12,9 C
16.06.2011 10:16 18,2 C 73 % 1012 hPa 0,0 l/m 26,0 km/h (4 Bft) S-SW45 200 0 min 41,2 klux 0,00 min 13,3 C 12,8 C
16.06.2011 10:31 19,1 C 72 % 1012 hPa 0,0 l/m 31,3 km/h (5 Bft) SW45 215 15 min 80,6 klux 0,00 min 13,9 C 13,3 C
16.06.2011 10:46 19,2 C 70 % 1012 hPa 0,0 l/m 30,8 km/h (5 Bft) W-SW67.5 250 15 min 61,0 klux 0,00 min 13,6 C 13,5 C
16.06.2011 11:01 19,2 C 69 % 1012 hPa 0,0 l/m 37,2 km/h (5 Bft) S-SW45 200 0 min 42,6 klux 0,00 min 13,4 C 12,8 C
16.06.2011 11:16 18,1 C 71 % 1012 hPa 0,0 l/m 31,7 km/h (5 Bft) S-SW45 205 0 min 21,9 klux 0,00 min 12,8 C 11,8 C
16.06.2011 11:31 18,4 C 72 % 1011 hPa 0,0 l/m 23,4 km/h (4 Bft) S-SW45 210 0 min 41,2 klux 0,00 min 13,3 C 13,5 C
16.06.2011 11:46 18,3 C 72 % 1012 hPa 0,0 l/m 25,5 km/h (4 Bft) S45 190 0 min 55,9 klux 0,00 min 13,2 C 13,0 C
16.06.2011 12:01 18,8 C 72 % 1012 hPa 0,0 l/m 27,5 km/h (4 Bft) S22.5 180 0 min 34,4 klux 0,00 min 13,6 C 13,4 C
16.06.2011 12:17 19,2 C 71 % 1012 hPa 0,0 l/m 31,0 km/h (5 Bft) S-SW45 205 16 min 70,0 klux 0,00 min 13,8 C 13,5 C
16.06.2011 12:31 20,1 C 69 % 1011 hPa 0,0 l/m 32,9 km/h (5 Bft) SW67.5 215 14 min 90,9 klux 0,00 min 14,2 C 14,5 C
16.06.2011 12:46 20,4 C 66 % 1011 hPa 0,0 l/m 38,1 km/h (5 Bft) W-SW45 255 0 min 54,3 klux 0,00 min 13,8 C 14,5 C
16.06.2011 13:01 20,0 C 66 % 1011 hPa 0,0 l/m 39,2 km/h (6 Bft) SW45 225 0 min 36,6 klux 0,00 min 13,4 C 13,8 C
16.06.2011 13:16 19,4 C 67 % 1011 hPa 0,0 l/m 30,5 km/h (5 Bft) W-SW22.5 250 0 min 38,0 klux 0,00 min 13,1 C 13,8 C
16.06.2011 13:31 19,7 C 70 % 1011 hPa 0,0 l/m 34,9 km/h (5 Bft) SW45 235 0 min 58,9 klux 0,00 min 14,1 C 13,7 C
16.06.2011 13:46 19,5 C 66 % 1011 hPa 0,0 l/m 34,9 km/h (5 Bft) W-SW45 245 0 min 34,5 klux 0,00 min 13,0 C 13,5 C
16.06.2011 14:01 19,4 C 67 % 1011 hPa 0,0 l/m 36,7 km/h (5 Bft) W-SW67.5 245 0 min 50,4 klux 0,00 min 13,1 C 13,1 C
16.06.2011 14:16 18,5 C 67 % 1011 hPa 0,0 l/m 31,0 km/h (5 Bft) SW45 230 0 min 28,3 klux 0,00 min 12,3 C 12,5 C
16.06.2011 14:31 18,0 C 71 % 1011 hPa 0,0 l/m 23,8 km/h (4 Bft) W-SW45 250 0 min 24,3 klux 0,00 min 12,7 C 12,9 C
16.06.2011 14:46 17,6 C 70 % 1011 hPa 0,0 l/m 40,6 km/h (6 Bft) W-SW45 250 0 min 29,1 klux 0,00 min 12,1 C 10,1 C
16.06.2011 15:01 17,5 C 69 % 1011 hPa 0,0 l/m 36,3 km/h (5 Bft) W-SW45 250 0 min 29,7 klux 0,00 min 11,7 C 10,4 C
16.06.2011 15:16 17,3 C 68 % 1011 hPa 0,0 l/m 36,1 km/h (5 Bft) W45 260 0 min 21,6 klux 0,00 min 11,3 C 10,1 C
16.06.2011 15:31 17,5 C 68 % 1011 hPa 0,0 l/m 35,2 km/h (5 Bft) SW67.5 235 0 min 31,3 klux 0,00 min 11,5 C 10,5 C
16.06.2011 15:46 18,0 C 67 % 1011 hPa 0,0 l/m 35,0 km/h (5 Bft) W-SW67.5 250 0 min 43,0 klux 0,00 min 11,8 C 11,3 C
16.06.2011 16:01 18,8 C 67 % 1011 hPa 0,0 l/m 29,0 km/h (5 Bft) W-SW67.5 245 0 min 54,4 klux 0,00 min 12,5 C 13,2 C
16.06.2011 16:16 19,3 C 63 % 1011 hPa 0,0 l/m 33,7 km/h (5 Bft) W-SW45 255 0 min 47,6 klux 0,00 min 12,1 C 13,3 C
16.06.2011 16:31 18,6 C 63 % 1011 hPa 0,0 l/m 37,6 km/h (5 Bft) W45 275 0 min 41,6 klux 0,00 min 11,4 C 11,9 C
16.06.2011 16:46 18,7 C 60 % 1011 hPa 0,0 l/m 38,4 km/h (5 Bft) W-SW45 245 15 min 78,9 klux 0,00 min 10,8 C 11,9 C
16.06.2011 17:02 18,6 C 58 % 1011 hPa 0,0 l/m 41,6 km/h (6 Bft) W45 260 0 min 45,5 klux 0,00 min 10,2 C 11,5 C
16.06.2011 17:16 17,5 C 59 % 1011 hPa 0,0 l/m 40,9 km/h (6 Bft) SW45 220 0 min 20,0 klux 0,00 min 9,4 C 9,9 C
16.06.2011 17:31 17,1 C 65 % 1011 hPa 0,0 l/m 28,1 km/h (4 Bft) SW67.5 215 15 min 67,5 klux 0,00 min 10,5 C 10,9 C
16.06.2011 17:46 17,6 C 63 % 1011 hPa 0,0 l/m 33,0 km/h (5 Bft) W-SW67.5 240 15 min 60,8 klux 0,00 min 10,5 C 10,9 C
16.06.2011 18:01 18,2 C 64 % 1011 hPa 0,0 l/m 36,4 km/h (5 Bft) SW45 230 0 min 59,4 klux 0,00 min 11,3 C 11,4 C
16.06.2011 18:16 18,1 C 63 % 1011 hPa 0,0 l/m 37,0 km/h (5 Bft) W-SW45 250 0 min 54,1 klux 0,00 min 10,9 C 11,2 C
16.06.2011 18:31 17,9 C 64 % 1010 hPa 0,0 l/m 32,0 km/h (5 Bft) W-SW67.5 250 0 min 49,1 klux 0,00 min 11,0 C 11,5 C
16.06.2011 18:46 17,2 C 65 % 1010 hPa 0,0 l/m 33,3 km/h (5 Bft) SW45 235 0 min 49,9 klux 0,00 min 10,6 C 10,3 C
16.06.2011 19:01 17,6 C 64 % 1010 hPa 0,0 l/m 37,9 km/h (5 Bft) W45 260 0 min 24,0 klux 0,00 min 10,7 C 10,4 C
16.06.2011 19:16 16,1 C 72 % 1010 hPa 0,0 l/m 41,5 km/h (6 Bft) W-SW45 255 0 min 36,8 klux 0,00 min 11,0 C 7,8 C
16.06.2011 19:31 14,0 C 77 % 1012 hPa 0,0 l/m 26,1 km/h (4 Bft) W22.5 275 0 min 12,0 klux 0,00 min 10,0 C 7,0 C
16.06.2011 19:46 13,2 C 80 % 1012 hPa 0,0 l/m 21,9 km/h (4 Bft) W22.5 270 0 min 3,85 klux 0,00 min 9,8 C 6,9 C
16.06.2011 20:01 12,8 C 82 % 1012 hPa 0,0 l/m 27,0 km/h (4 Bft) W45 265 0 min 4,22 klux 0,00 min 9,8 C 5,2 C
16.06.2011 20:16 12,5 C 84 % 1012 hPa 0,0 l/m 24,2 km/h (4 Bft) W45 270 0 min 3,25 klux 0,00 min 9,9 C 5,4 C
16.06.2011 20:31 12,3 C 85 % 1012 hPa 0,0 l/m 21,0 km/h (4 Bft) W-SW45 255 0 min 4,06 klux 0,00 min 9,9 C 6,0 C
16.06.2011 20:46 12,3 C 85 % 1013 hPa 0,0 l/m 35,8 km/h (5 Bft) W45 275 0 min 8,80 klux 0,00 min 9,9 C 2,9 C
16.06.2011 21:01 12,1 C 85 % 1013 hPa 0,0 l/m 24,8 km/h (4 Bft) W22.5 270 0 min 7,52 klux 0,00 min 9,7 C 4,7 C
16.06.2011 21:16 11,4 C 85 % 1013 hPa 0,0 l/m 27,3 km/h (4 Bft) W-SW22.5 255 0 min 3,71 klux 0,00 min 9,0 C 3,2 C
16.06.2011 21:31 11,1 C 85 % 1013 hPa 0,0 l/m 22,5 km/h (4 Bft) W22.5 260 0 min 2,14 klux 0,00 min 8,7 C 4,0 C
16.06.2011 21:47 10,4 C 86 % 1013 hPa 0,0 l/m 17,4 km/h (3 Bft) W 260 0 min 1,12 klux 0,00 min 8,2 C 4,7 C
16.06.2011 22:01 9,8 C 86 % 1013 hPa 3,0 l/m 15,5 km/h (3 Bft) W-SW22.5 250 0 min 419 lux 14,00 min 7,6 C 4,7 C
16.06.2011 22:16 9,4 C 86 % 1013 hPa 0,0 l/m 16,5 km/h (3 Bft) W-SW22.5 255 0 min 84 lux 0,00 min 7,2 C 3,8 C
16.06.2011 22:31 8,8 C 85 % 1014 hPa 0,0 l/m 21,8 km/h (4 Bft) W22.5 260 0 min 19 lux 0,00 min 6,4 C 1,1 C
16.06.2011 22:46 8,2 C 85 % 1014 hPa 0,0 l/m 21,6 km/h (4 Bft) W45 260 0 min 6 lux 0,00 min 5,8 C 0,4 C
16.06.2011 23:01 7,7 C 85 % 1014 hPa 0,0 l/m 15,0 km/h (3 Bft) W22.5 260 0 min 0 lux 0,00 min 5,3 C 2,3 C
16.06.2011 23:16 7,4 C 86 % 1014 hPa 0,0 l/m 15,4 km/h (3 Bft) W22.5 260 0 min 0 lux 0,00 min 5,2 C 1,8 C
16.06.2011 23:31 7,2 C 86 % 1014 hPa 0,0 l/m 15,8 km/h (3 Bft) W-SW 250 0 min 0 lux 0,00 min 5,0 C 1,4 C
16.06.2011 23:46 6,9 C 86 % 1014 hPa 0,0 l/m 7,0 km/h (2 Bft) W-SW 245 0 min 0 lux 0,00 min 4,7 C 6,4 C
_ Min-Zeit 23:46 17:02 18:31 - 00:01 - - - - - 23:46 22:46
Minimum _ 6,9 C 58 % 1010 hPa - 0,0 km/h (0 Bft) - - - - - 4,7 C 0,4 C
_ Max-Zeit 12:46 06:46 00:01 22:01 17:02 - - 12:17 12:31 22:01 12:31 08:01
Maximum _ 20,4 C 89 % 1015 hPa 3,0 l/m 41,6 km/h
W (6 Bft)
- - 16 min 90,9 klux 14,00 min 14,2 C 15,3 C
Durchschnitt _ 14,3 C 78 % 1013 hPa #3,0 l/m 18,9 km/h (3 Bft) W-SW - #1:45 h 22,5 klux #14 min. 10,2 C 10,2 C